Deer, AR (72628)

7:55 PM CDT on August 22, 2014 (GMT -0500)
Parthenon AR | Change Station
CLOSE
Current Station
Personal Weather Station
Location: Parthenon, AR
Elevation: 1119 ft
Nearby Weather Stations
Active Advisory: Special Statement

Elev 1119 ft 35.95 °N, 93.28 °W | Updated 1 minute ago

Clear
Clear
81.9 °F
Feels Like 90 °F
N
0.0
Wind Variable Wind from South
Gusts 1.0 mph

Today
High -- | Low -- °F
--% Chance of Precip.
Yesterday
High -- | Low -- °F
Precip. -- in
6:37 AM 7:54 PM
Waning Crescent, 6% visible
Pressure 29.95 in
Visibility 10.0 miles
Clouds Clear
Heat Index 90 °F
Dew Point 77 °F
Humidity 86%
Rainfall 0.00 in
Snow Depth Not available.
UV 1 out of 12
Pollen 9.70 out of 12
Air Quality Not available.
Flu Activity Not available.
METAR KHRO 222353Z AUTO 19005KT 10SM CLR 31/23 A3000 RMK AO2 SLP141 T03110228 10344 20311 55004

More Conditions Fewer Conditions

Pressure 29.95 in
Visibility 10.0 miles
Clouds Clear
Heat Index 90 °F
Dew Point 77 °F
Humidity 86%
Rainfall 0.00 in
Snow Depth Not available.
UV 1 out of 12
Pollen 9.70 out of 12
Air Quality Not available.
Flu Activity Not available.
METAR KHRO 222353Z AUTO 19005KT 10SM CLR 31/23 A3000 RMK AO2 SLP141 T03110228 10344 20311 55004

More Conditions Fewer Conditions

10-Day Weather Forecast

Almanac

Astronomy

Aug. 22, 2014 Rise Set
Actual Time 6:37 AM CDT 7:54 PM CDT
Civil Twilight 6:10 AM CDT 8:20 PM CDT
Nautical Twilight 5:39 AM CDT 8:52 PM CDT
Astronomical Twilight 5:05 AM CDT 9:25 PM CDT
Moon 4:03 AM CDT (8/22) 6:01 PM CDT (8/22)
Length of Visible Light 14h 10m
Length of Day
13h 16m
Tomorrow will be 2m 5s shorter.
Waning Crescent, 6% of the Moon is Illuminated
Today
Waning Crescent
Aug 25
New
Sep 2
First Quarter
Sep 8
Full
Sep 15
Last Quarter

Today's Extremes

State Highs State Lows

Community

WunderPhotos

Upload Photos

1,746,326 photos uploaded!

WunderBlogs® & News

Nearby

Snow Depth

Station Depth Elevation
No new snow has been reported.

Earthquake Activity

City Distance Mag. Time & Date
No recent earthquake activity has been reported nearby.
Minimum magnitude displayed is 2.5.

Coastal Water Temperatures

Place Temperature
No Stations Reporting

Nearby Weather Stations